Time;durP1;ratioP1;P1;durP2;ratioP2;P2;SDS_P1;SDS_P2;PMS_P1;PMS_P2;Temp;Humidity;BMP_temperature;BMP_pressure;BME280_temperature;BME280_humidity;BME280_pressure;Samples;Min_cycle;Max_cycle;Signal;HPM_P1;HPM_P2
2024/03/02 00:02:12;;;;;;;;;;;;;;;;;;5102452;28;19924;-77
2024/03/02 00:04:38;;;;;;;;;;;;;;;;;;5108000;28;20284;-77
2024/03/02 00:07:05;;;;;;;;;;;;;;;;;;5091669;28;19925;-75
2024/03/02 00:09:33;;;;;;;;;;;;;;;;;;5112857;28;19924;-75
2024/03/02 00:12:00;;;;;;;;;;;;;;;;;;5108579;28;19928;-75
2024/03/02 00:14:26;;;;;;;;;;;;;;;;;;5102231;28;19932;-75
2024/03/02 00:16:53;;;;;;;;;;;;;;;;;;5111359;28;19930;-74
2024/03/02 00:19:19;;;;;;;;;;;;;;;;;;5104786;28;19930;-74
2024/03/02 00:21:47;;;;;;;;;;;;;;;;;;5104455;28;20388;-77
2024/03/02 00:24:16;;;;;;;;;;;;;;;;;;5113855;28;19931;-74
2024/03/02 00:26:43;;;;;;;;;;;;;;;;;;5104385;28;19969;-76
2024/03/02 00:29:13;;;;;;;;;;;;;;;;;;5103740;28;19935;-76
2024/03/02 00:31:41;;;;;;;;;;;;;;;;;;5090120;28;19931;-74
2024/03/02 00:34:08;;;;;;;;;;;;;;;;;;5107059;28;19928;-75
2024/03/02 00:36:38;;;;;;;;;;;;;;;;;;5104858;28;19930;-75
2024/03/02 00:39:07;;;;;;;;;;;;;;;;;;5092228;28;19928;-74
2024/03/02 00:41:34;;;;;;;;;;;;;;;;;;5097430;28;20289;-76
2024/03/02 00:44:00;;;;;;;;;;;;;;;;;;5108766;28;19977;-74
2024/03/02 00:46:27;;;;;;;;;;;;;;;;;;5107783;28;19923;-74
2024/03/02 00:48:54;;;;;;;;;;;;;;;;;;5111695;28;20352;-76
2024/03/02 00:51:24;;;;;;;;;;;;;;;;;;5095487;28;19924;-73
2024/03/02 00:53:52;;;;;;;;;;;;;;;;;;5098794;28;19924;-76
2024/03/02 00:56:18;;;;;;;;;;;;;;;;;;5105178;28;19924;-75
2024/03/02 00:58:45;;;;;;;;;;;;;;;;;;5109576;28;19967;-76
2024/03/02 01:01:11;;;;;;;;;;;;;;;;;;5102717;28;19928;-76
2024/03/02 01:03:38;;;;;;;;;;;;;;;;;;5102084;28;19923;-75
2024/03/02 01:06:07;;;;;;;;;;;;;;;;;;5095037;28;20342;-78
2024/03/02 01:08:33;;;;;;;;;;;;;;;;;;5109729;28;20207;-76
2024/03/02 01:11:03;;;;;;;;;;;;;;;;;;5092102;28;19973;-74
2024/03/02 01:13:32;;;;;;;;;;;;;;;;;;5103872;28;19924;-76
2024/03/02 01:15:58;;;;;;;;;;;;;;;;;;5094619;28;19931;-76
2024/03/02 01:18:25;;;;;;;;;;;;;;;;;;5102058;28;19923;-76
2024/03/02 01:20:55;;;;;;;;;;;;;;;;;;5105516;28;19924;-76
2024/03/02 01:23:22;;;;;;;;;;;;;;;;;;5104783;28;20280;-75
2024/03/02 01:25:48;;;;;;;;;;;;;;;;;;5105351;28;20436;-75
2024/03/02 01:28:15;;;;;;;;;;;;;;;;;;5103172;28;20334;-75
2024/03/02 01:30:41;;;;;;;;;;;;;;;;;;5094902;28;20018;-73
2024/03/02 01:33:08;;;;;;;;;;;;;;;;;;5102321;28;19931;-76
2024/03/02 01:35:34;;;;;;;;;;;;;;;;;;5098534;28;19924;-74
2024/03/02 01:38:01;;;;;;;;;;;;;;;;;;5101491;28;20356;-74
2024/03/02 01:40:28;;;;;;;;;;;;;;;;;;5103609;28;20368;-77
2024/03/02 01:42:54;;;;;;;;;;;;;;;;;;5104736;28;20006;-76
2024/03/02 01:45:21;;;;;;;;;;;;;;;;;;5076005;28;20030;-77
2024/03/02 01:47:47;;;;;;;;;;;;;;;;;;5092999;28;19924;-75
2024/03/02 01:50:17;;;;;;;;;;;;;;;;;;5105709;28;19972;-76
2024/03/02 01:52:44;;;;;;;;;;;;;;;;;;5102145;28;20014;-74
2024/03/02 01:55:10;;;;;;;;;;;;;;;;;;5097426;28;19928;-76
2024/03/02 01:57:37;;;;;;;;;;;;;;;;;;5111549;28;20338;-76
2024/03/02 02:00:04;;;;;;;;;;;;;;;;;;5101455;28;19924;-75
2024/03/02 02:02:36;;;;;;;;;;;;;;;;;;5105783;28;20371;-75
2024/03/02 02:05:04;;;;;;;;;;;;;;;;;;5114336;28;19985;-76
2024/03/02 02:07:34;;;;;;;;;;;;;;;;;;5098194;28;19924;-76
2024/03/02 02:10:01;;;;;;;;;;;;;;;;;;5100739;28;20333;-76
2024/03/02 02:12:27;;;;;;;;;;;;;;;;;;5080434;28;20567;-75
2024/03/02 02:14:54;;;;;;;;;;;;;;;;;;5109573;28;20358;-75
2024/03/02 02:17:21;;;;;;;;;;;;;;;;;;5112466;28;20288;-75
2024/03/02 02:19:47;;;;;;;;;;;;;;;;;;5103919;28;19970;-76
2024/03/02 02:22:14;;;;;;;;;;;;;;;;;;5093170;28;19924;-76
2024/03/02 02:24:41;;;;;;;;;;;;;;;;;;5091650;28;19924;-74
2024/03/02 02:27:08;;;;;;;;;;;;;;;;;;5105877;28;19931;-74
2024/03/02 02:29:36;;;;;;;;;;;;;;;;;;5097039;28;19970;-75
2024/03/02 02:32:02;;;;;;;;;;;;;;;;;;5093215;28;19924;-74
2024/03/02 02:34:31;;;;;;;;;;;;;;;;;;5108660;28;20330;-76
2024/03/02 02:36:57;;;;;;;;;;;;;;;;;;5111167;28;20022;-75
2024/03/02 02:39:24;;;;;;;;;;;;;;;;;;5114752;28;19928;-74
2024/03/02 02:41:50;;;;;;;;;;;;;;;;;;5089047;28;19935;-74
2024/03/02 02:44:17;;;;;;;;;;;;;;;;;;5106462;28;19974;-76
2024/03/02 02:46:44;;;;;;;;;;;;;;;;;;5096360;28;19925;-75
2024/03/02 02:49:10;;;;;;;;;;;;;;;;;;5103075;28;19928;-75
2024/03/02 02:51:36;;;;;;;;;;;;;;;;;;5112508;28;19924;-74
2024/03/02 02:54:04;;;;;;;;;;;;;;;;;;5097006;28;19927;-74
2024/03/02 02:56:31;;;;;;;;;;;;;;;;;;5109611;28;20030;-76
2024/03/02 02:58:58;;;;;;;;;;;;;;;;;;5100781;28;19930;-76
2024/03/02 03:01:25;;;;;;;;;;;;;;;;;;5103753;28;19971;-75
2024/03/02 03:03:54;;;;;;;;;;;;;;;;;;5104137;28;20367;-75
2024/03/02 03:06:21;;;;;;;;;;;;;;;;;;5097161;28;19974;-74
2024/03/02 03:08:49;;;;;;;;;;;;;;;;;;5101512;28;20400;-75
2024/03/02 03:11:15;;;;;;;;;;;;;;;;;;5106217;28;19924;-76
2024/03/02 03:13:42;;;;;;;;;;;;;;;;;;5106672;28;19927;-76
2024/03/02 03:16:08;;;;;;;;;;;;;;;;;;5098670;28;19946;-76
2024/03/02 03:18:35;;;;;;;;;;;;;;;;;;5107823;28;19927;-75
2024/03/02 03:21:02;;;;;;;;;;;;;;;;;;5103677;28;19924;-75
2024/03/02 03:23:29;;;;;;;;;;;;;;;;;;5116514;28;19930;-75
2024/03/02 03:25:55;;;;;;;;;;;;;;;;;;5100205;28;20015;-77
2024/03/02 03:28:21;;;;;;;;;;;;;;;;;;5109344;28;19927;-76
2024/03/02 03:30:48;;;;;;;;;;;;;;;;;;5114074;28;19931;-74
2024/03/02 03:33:15;;;;;;;;;;;;;;;;;;5110111;28;20368;-75
2024/03/02 03:35:42;;;;;;;;;;;;;;;;;;5108542;28;20018;-76
2024/03/02 03:38:09;;;;;;;;;;;;;;;;;;5103196;28;19931;-76
2024/03/02 03:40:35;;;;;;;;;;;;;;;;;;5112880;28;19932;-73
2024/03/02 03:43:02;;;;;;;;;;;;;;;;;;5096572;28;19924;-74
2024/03/02 03:45:28;;;;;;;;;;;;;;;;;;5111124;28;19931;-75
2024/03/02 03:47:55;;;;;;;;;;;;;;;;;;5108592;27;19973;-76
2024/03/02 03:50:22;;;;;;;;;;;;;;;;;;5105612;28;19924;-74
2024/03/02 03:52:48;;;;;;;;;;;;;;;;;;5096222;28;19924;-75
2024/03/02 03:55:16;;;;;;;;;;;;;;;;;;5089830;28;20405;-74
2024/03/02 03:57:42;;;;;;;;;;;;;;;;;;5101116;28;20015;-75
2024/03/02 04:00:10;;;;;;;;;;;;;;;;;;5112585;28;19927;-75
2024/03/02 04:02:39;;;;;;;;;;;;;;;;;;5101070;28;19930;-76
2024/03/02 04:05:08;;;;;;;;;;;;;;;;;;5105850;28;19931;-75
2024/03/02 04:07:39;;;;;;;;;;;;;;;;;;5104122;28;20019;-75
2024/03/02 04:10:07;;;;;;;;;;;;;;;;;;5097132;28;20308;-75
2024/03/02 04:12:36;;;;;;;;;;;;;;;;;;5088088;28;19928;-74
2024/03/02 04:15:03;;;;;;;;;;;;;;;;;;5092379;28;19951;-75
2024/03/02 04:17:30;;;;;;;;;;;;;;;;;;5092645;28;19928;-75
2024/03/02 04:19:56;;;;;;;;;;;;;;;;;;5098444;28;20278;-73
2024/03/02 04:22:23;;;;;;;;;;;;;;;;;;5090118;28;19928;-75
2024/03/02 04:24:50;;;;;;;;;;;;;;;;;;5090586;28;19977;-74
2024/03/02 04:27:17;;;;;;;;;;;;;;;;;;5107688;28;20265;-75
2024/03/02 04:29:44;;;;;;;;;;;;;;;;;;5115873;28;19923;-75
2024/03/02 04:32:10;;;;;;;;;;;;;;;;;;5112175;28;19972;-76
2024/03/02 04:34:37;;;;;;;;;;;;;;;;;;5092376;28;20396;-76
2024/03/02 04:37:03;;;;;;;;;;;;;;;;;;5101518;28;19963;-75
2024/03/02 04:39:30;;;;;;;;;;;;;;;;;;5110379;28;19960;-75
2024/03/02 04:41:58;;;;;;;;;;;;;;;;;;5108924;28;19924;-75
2024/03/02 04:44:24;;;;;;;;;;;;;;;;;;5086453;28;19928;-76
2024/03/02 04:46:52;;;;;;;;;;;;;;;;;;5092352;28;19928;-74
2024/03/02 04:49:19;;;;;;;;;;;;;;;;;;5097319;28;19923;-74
2024/03/02 04:51:45;;;;;;;;;;;;;;;;;;5100150;28;19931;-75
2024/03/02 04:54:15;;;;;;;;;;;;;;;;;;5102446;28;19924;-76
2024/03/02 04:56:49;;;;;;;;;;;;;;;;;;5093726;28;19928;-77
2024/03/02 04:59:17;;;;;;;;;;;;;;;;;;5102777;28;19924;-75
2024/03/02 05:01:43;;;;;;;;;;;;;;;;;;5111521;28;20396;-75
2024/03/02 05:04:13;;;;;;;;;;;;;;;;;;5115102;28;19923;-75
2024/03/02 05:06:40;;;;;;;;;;;;;;;;;;5115028;28;20302;-76
2024/03/02 05:09:06;;;;;;;;;;;;;;;;;;5112791;28;20030;-76
2024/03/02 05:14:07;;;;;;;;;;;;;;;;;;5103493;28;19972;-73
2024/03/02 05:16:35;;;;;;;;;;;;;;;;;;5110013;28;19928;-75
2024/03/02 05:19:01;;;;;;;;;;;;;;;;;;5093046;28;20402;-74
2024/03/02 05:21:28;;;;;;;;;;;;;;;;;;5108861;28;19961;-76
2024/03/02 05:23:54;;;;;;;;;;;;;;;;;;5088896;28;19924;-74
2024/03/02 05:26:22;;;;;;;;;;;;;;;;;;5112372;28;19931;-74
2024/03/02 05:28:49;;;;;;;;;;;;;;;;;;5108611;28;19996;-76
2024/03/02 05:31:15;;;;;;;;;;;;;;;;;;5103461;28;20006;-75
2024/03/02 05:33:41;;;;;;;;;;;;;;;;;;5110719;28;19972;-77
2024/03/02 05:36:08;;;;;;;;;;;;;;;;;;5100894;28;20010;-75
2024/03/02 05:38:35;;;;;;;;;;;;;;;;;;5076162;28;20346;-76
2024/03/02 05:41:02;;;;;;;;;;;;;;;;;;5111136;28;19980;-76
2024/03/02 05:43:28;;;;;;;;;;;;;;;;;;5102270;28;19977;-75
2024/03/02 05:45:55;;;;;;;;;;;;;;;;;;5099468;28;19923;-76
2024/03/02 05:48:21;;;;;;;;;;;;;;;;;;5084432;28;19932;-74
2024/03/02 05:50:48;;;;;;;;;;;;;;;;;;5100305;28;20053;-76
2024/03/02 05:53:16;;;;;;;;;;;;;;;;;;5087937;28;19928;-75
2024/03/02 05:55:44;;;;;;;;;;;;;;;;;;5092584;28;19928;-75
2024/03/02 05:58:31;;;;;;;;;;;;;;;;;;5102544;28;20331;-73
2024/03/02 06:00:57;;;;;;;;;;;;;;;;;;5103610;28;19924;-75
2024/03/02 06:03:24;;;;;;;;;;;;;;;;;;5106106;28;20295;-73
2024/03/02 06:05:50;;;;;;;;;;;;;;;;;;5087871;28;20367;-74
2024/03/02 06:08:17;;;;;;;;;;;;;;;;;;5092017;28;19977;-75
2024/03/02 06:10:43;;;;;;;;;;;;;;;;;;5105844;28;20295;-75
2024/03/02 06:13:10;;;;;;;;;;;;;;;;;;5096139;28;19924;-76
2024/03/02 06:15:36;;;;;;;;;;;;;;;;;;5099788;28;20022;-75
2024/03/02 06:18:03;;;;;;;;;;;;;;;;;;5095967;28;20291;-75
2024/03/02 06:20:32;;;;;;;;;;;;;;;;;;5094710;28;19924;-73
2024/03/02 06:23:02;;;;;;;;;;;;;;;;;;5095350;28;19941;-74
2024/03/02 06:25:28;;;;;;;;;;;;;;;;;;5105423;28;20372;-74
2024/03/02 06:27:55;;;;;;;;;;;;;;;;;;5098073;28;19931;-76
2024/03/02 06:30:21;;;;;;;;;;;;;;;;;;5110665;28;19928;-76
2024/03/02 06:32:54;;;;;;;;;;;;;;;;;;5110916;28;19927;-76
2024/03/02 06:35:20;;;;;;;;;;;;;;;;;;5103195;28;19938;-76
2024/03/02 06:37:47;;;;;;;;;;;;;;;;;;5114784;28;19928;-75
2024/03/02 06:40:14;;;;;;;;;;;;;;;;;;5108241;28;20363;-74
2024/03/02 06:42:41;;;;;;;;;;;;;;;;;;5108458;28;19924;-75
2024/03/02 06:45:07;;;;;;;;;;;;;;;;;;5097672;28;19924;-75
2024/03/02 06:47:34;;;;;;;;;;;;;;;;;;5098732;28;19956;-74
2024/03/02 06:50:00;;;;;;;;;;;;;;;;;;5097896;28;19924;-75
2024/03/02 06:52:27;;;;;;;;;;;;;;;;;;5101846;28;19963;-75
2024/03/02 06:54:53;;;;;;;;;;;;;;;;;;5096303;28;19971;-75
2024/03/02 06:57:20;;;;;;;;;;;;;;;;;;5101323;28;19924;-76
2024/03/02 06:59:50;;;;;;;;;;;;;;;;;;5116313;28;20400;-75
2024/03/02 07:02:16;;;;;;;;;;;;;;;;;;5107078;28;20372;-76
2024/03/02 07:04:42;;;;;;;;;;;;;;;;;;5108900;28;20358;-76
2024/03/02 07:07:09;;;;;;;;;;;;;;;;;;5104589;28;20388;-76
2024/03/02 07:09:35;;;;;;;;;;;;;;;;;;5107901;28;19924;-76
2024/03/02 07:12:02;;;;;;;;;;;;;;;;;;5102368;28;20000;-75
2024/03/02 07:14:55;;;;;;;;;;;;;;;;;;5110577;28;19970;-74
2024/03/02 07:17:14;;;;;;;;;;;;;;;;;;5113546;28;19962;-76
2024/03/02 07:19:42;;;;;;;;;;;;;;;;;;5111096;28;20028;-74
2024/03/02 07:22:09;;;;;;;;;;;;;;;;;;5108016;28;20405;-74
2024/03/02 07:24:35;;;;;;;;;;;;;;;;;;5099960;28;19928;-77
2024/03/02 07:27:02;;;;;;;;;;;;;;;;;;5101205;28;19927;-75
2024/03/02 07:29:30;;;;;;;;;;;;;;;;;;5113164;28;19969;-75
2024/03/02 07:31:56;;;;;;;;;;;;;;;;;;5082286;28;20359;-76
2024/03/02 07:34:24;;;;;;;;;;;;;;;;;;5106214;28;19924;-77
2024/03/02 07:36:51;;;;;;;;;;;;;;;;;;5110956;28;19924;-76
2024/03/02 07:39:17;;;;;;;;;;;;;;;;;;5115041;28;19924;-74
2024/03/02 07:41:43;;;;;;;;;;;;;;;;;;5106069;28;19931;-75
2024/03/02 07:44:11;;;;;;;;;;;;;;;;;;5088389;28;20007;-78
2024/03/02 07:46:37;;;;;;;;;;;;;;;;;;5108251;28;19962;-77
2024/03/02 07:49:04;;;;;;;;;;;;;;;;;;5108217;28;19927;-75
2024/03/02 07:51:30;;;;;;;;;;;;;;;;;;5114307;28;19924;-76
2024/03/02 07:53:57;;;;;;;;;;;;;;;;;;5115733;28;19923;-74
2024/03/02 07:56:24;;;;;;;;;;;;;;;;;;5103173;28;19924;-77
2024/03/02 07:58:51;;;;;;;;;;;;;;;;;;5099442;28;20303;-76
2024/03/02 08:01:17;;;;;;;;;;;;;;;;;;5107859;28;20038;-75
2024/03/02 08:03:48;;;;;;;;;;;;;;;;;;5113641;28;19930;-77
2024/03/02 08:06:21;;;;;;;;;;;;;;;;;;5108669;28;20018;-73
2024/03/02 08:08:48;;;;;;;;;;;;;;;;;;5108936;28;19924;-78
2024/03/02 08:11:17;;;;;;;;;;;;;;;;;;5099066;28;19928;-73
2024/03/02 08:13:45;;;;;;;;;;;;;;;;;;5086745;28;19924;-74
2024/03/02 08:16:12;;;;;;;;;;;;;;;;;;5102273;28;20569;-75
2024/03/02 08:18:38;;;;;;;;;;;;;;;;;;5100049;28;20373;-74
2024/03/02 08:21:05;;;;;;;;;;;;;;;;;;5086324;28;19928;-77
2024/03/02 08:23:32;;;;;;;;;;;;;;;;;;5114734;28;19927;-76
2024/03/02 08:26:01;;;;;;;;;;;;;;;;;;5106994;28;19950;-76
2024/03/02 08:28:30;;;;;;;;;;;;;;;;;;5086088;28;19927;-76
2024/03/02 08:30:56;;;;;;;;;;;;;;;;;;5098858;28;19924;-76
2024/03/02 08:33:25;;;;;;;;;;;;;;;;;;5105799;28;20054;-74
2024/03/02 08:35:52;;;;;;;;;;;;;;;;;;5105800;28;19923;-75
2024/03/02 08:38:18;;;;;;;;;;;;;;;;;;5091859;28;20668;-78
2024/03/02 08:40:45;;;;;;;;;;;;;;;;;;5042282;28;20171;-73
2024/03/02 08:43:11;;;;;;;;;;;;;;;;;;5107446;28;19990;-75
2024/03/02 08:45:39;;;;;;;;;;;;;;;;;;5107551;28;20411;-74
2024/03/02 08:48:05;;;;;;;;;;;;;;;;;;5103855;28;19978;-74
2024/03/02 08:50:34;;;;;;;;;;;;;;;;;;5105644;28;19932;-75
2024/03/02 08:53:00;;;;;;;;;;;;;;;;;;5104850;28;19924;-75
2024/03/02 08:55:27;;;;;;;;;;;;;;;;;;5099628;28;19924;-75
2024/03/02 08:57:54;;;;;;;;;;;;;;;;;;5108389;28;20012;-76
2024/03/02 09:00:20;;;;;;;;;;;;;;;;;;5106400;28;20019;-74
2024/03/02 09:02:46;;;;;;;;;;;;;;;;;;5093704;28;19924;-75
2024/03/02 09:05:13;;;;;;;;;;;;;;;;;;5111017;28;20426;-77
2024/03/02 09:07:40;;;;;;;;;;;;;;;;;;5106421;28;20023;-75
2024/03/02 09:10:09;;;;;;;;;;;;;;;;;;5093648;28;20015;-74
2024/03/02 09:12:35;;;;;;;;;;;;;;;;;;5113496;28;19927;-74
2024/03/02 09:15:03;;;;;;;;;;;;;;;;;;5095984;28;19931;-75
2024/03/02 09:17:29;;;;;;;;;;;;;;;;;;5093017;28;19953;-75
2024/03/02 09:19:56;;;;;;;;;;;;;;;;;;5113518;28;19947;-76
2024/03/02 09:22:23;;;;;;;;;;;;;;;;;;5101827;28;20337;-73
2024/03/02 09:24:49;;;;;;;;;;;;;;;;;;5090427;28;19929;-74
2024/03/02 09:27:15;;;;;;;;;;;;;;;;;;5090610;28;20415;-76
2024/03/02 09:29:42;;;;;;;;;;;;;;;;;;5105773;27;20404;-74
2024/03/02 09:32:08;;;;;;;;;;;;;;;;;;5101356;28;19924;-76
2024/03/02 09:34:35;;;;;;;;;;;;;;;;;;5086586;28;20291;-74
2024/03/02 09:37:04;;;;;;;;;;;;;;;;;;5108050;28;19932;-76
2024/03/02 09:39:30;;;;;;;;;;;;;;;;;;5106627;28;19930;-73
2024/03/02 09:41:57;;;;;;;;;;;;;;;;;;5091196;28;19973;-77
2024/03/02 09:44:24;;;;;;;;;;;;;;;;;;5111012;28;19950;-75
2024/03/02 09:46:51;;;;;;;;;;;;;;;;;;5106918;28;20406;-75
2024/03/02 09:49:17;;;;;;;;;;;;;;;;;;5089928;28;19924;-75
2024/03/02 09:51:44;;;;;;;;;;;;;;;;;;5091034;28;19931;-76
2024/03/02 09:54:10;;;;;;;;;;;;;;;;;;5094624;28;19924;-73
2024/03/02 09:56:43;;;;;;;;;;;;;;;;;;5097535;28;19924;-75
2024/03/02 09:59:09;;;;;;;;;;;;;;;;;;5104198;28;19977;-76
2024/03/02 10:01:36;;;;;;;;;;;;;;;;;;5087971;28;19924;-76
2024/03/02 10:04:03;;;;;;;;;;;;;;;;;;5099850;28;19946;-76
2024/03/02 10:06:30;;;;;;;;;;;;;;;;;;5106913;28;19924;-75
2024/03/02 10:08:58;;;;;;;;;;;;;;;;;;5081055;28;20383;-74
2024/03/02 10:11:25;;;;;;;;;;;;;;;;;;5107004;28;19959;-76
2024/03/02 10:13:52;;;;;;;;;;;;;;;;;;5103726;28;19928;-77
2024/03/02 10:16:19;;;;;;;;;;;;;;;;;;5090199;28;20014;-76
2024/03/02 10:18:45;;;;;;;;;;;;;;;;;;5088368;28;19923;-76
2024/03/02 10:21:12;;;;;;;;;;;;;;;;;;5089061;28;19968;-75
2024/03/02 10:23:38;;;;;;;;;;;;;;;;;;5100448;28;20011;-77
2024/03/02 10:26:05;;;;;;;;;;;;;;;;;;5101351;28;19925;-78
2024/03/02 10:28:31;;;;;;;;;;;;;;;;;;5100866;28;19958;-78
2024/03/02 10:30:58;;;;;;;;;;;;;;;;;;5106627;28;20057;-78
2024/03/02 10:33:24;;;;;;;;;;;;;;;;;;5100756;28;19966;-79
2024/03/02 10:35:51;;;;;;;;;;;;;;;;;;5101183;28;19935;-75
2024/03/02 10:38:17;;;;;;;;;;;;;;;;;;5097753;28;20058;-77
2024/03/02 10:40:44;;;;;;;;;;;;;;;;;;5109417;28;19950;-76
2024/03/02 10:43:10;;;;;;;;;;;;;;;;;;5098025;28;19928;-77
2024/03/02 10:45:36;;;;;;;;;;;;;;;;;;5100420;28;19931;-78
2024/03/02 10:48:05;;;;;;;;;;;;;;;;;;5101507;28;19927;-79
2024/03/02 10:50:31;;;;;;;;;;;;;;;;;;5104353;28;19977;-76
2024/03/02 10:52:58;;;;;;;;;;;;;;;;;;5104051;28;19928;-76
2024/03/02 10:55:24;;;;;;;;;;;;;;;;;;5100854;28;19955;-77
2024/03/02 10:57:51;;;;;;;;;;;;;;;;;;5101327;28;19985;-77
2024/03/02 11:00:19;;;;;;;;;;;;;;;;;;5108534;28;19931;-77
2024/03/02 11:02:46;;;;;;;;;;;;;;;;;;5105470;28;19932;-78
2024/03/02 11:05:13;;;;;;;;;;;;;;;;;;5103633;28;19927;-78
2024/03/02 11:07:39;;;;;;;;;;;;;;;;;;5103613;28;19934;-77
2024/03/02 11:10:08;;;;;;;;;;;;;;;;;;5105744;28;19930;-77
2024/03/02 11:12:35;;;;;;;;;;;;;;;;;;5107379;28;19948;-75
2024/03/02 11:15:01;;;;;;;;;;;;;;;;;;5104522;28;20384;-77
2024/03/02 11:17:27;;;;;;;;;;;;;;;;;;5106450;27;20358;-77
2024/03/02 11:19:54;;;;;;;;;;;;;;;;;;5105549;28;19924;-76
2024/03/02 11:22:20;;;;;;;;;;;;;;;;;;5107899;28;19924;-76
2024/03/02 11:24:47;;;;;;;;;;;;;;;;;;5103072;28;20851;-77
2024/03/02 11:27:15;;;;;;;;;;;;;;;;;;5103310;28;20011;-78
2024/03/02 11:29:41;;;;;;;;;;;;;;;;;;5108255;28;19927;-76
2024/03/02 11:32:08;;;;;;;;;;;;;;;;;;5102772;28;19928;-77
2024/03/02 11:34:34;;;;;;;;;;;;;;;;;;5100917;28;19930;-78
2024/03/02 11:37:01;;;;;;;;;;;;;;;;;;5106711;28;20442;-77
2024/03/02 11:39:27;;;;;;;;;;;;;;;;;;5106409;28;19924;-78
2024/03/02 11:41:53;;;;;;;;;;;;;;;;;;5103492;28;19985;-77
2024/03/02 11:44:21;;;;;;;;;;;;;;;;;;5098318;28;20335;-78
2024/03/02 11:46:48;;;;;;;;;;;;;;;;;;5106511;28;19923;-77
2024/03/02 11:49:14;;;;;;;;;;;;;;;;;;5102390;28;19924;-78
2024/03/02 11:51:40;;;;;;;;;;;;;;;;;;5084970;28;19924;-76
2024/03/02 11:54:07;;;;;;;;;;;;;;;;;;5104255;28;20064;-78
2024/03/02 11:56:33;;;;;;;;;;;;;;;;;;5103731;28;19928;-76
2024/03/02 11:58:59;;;;;;;;;;;;;;;;;;5103260;28;19928;-77
2024/03/02 12:01:26;;;;;;;;;;;;;;;;;;5098899;28;19930;-78
2024/03/02 12:03:54;;;;;;;;;;;;;;;;;;5104876;28;19939;-76
2024/03/02 12:06:21;;;;;;;;;;;;;;;;;;5099409;28;19976;-77
2024/03/02 12:08:47;;;;;;;;;;;;;;;;;;5097852;28;19924;-77
2024/03/02 12:11:15;;;;;;;;;;;;;;;;;;5085374;28;19977;-77
2024/03/02 12:13:42;;;;;;;;;;;;;;;;;;5104879;28;19923;-79
2024/03/02 12:16:08;;;;;;;;;;;;;;;;;;5109681;28;19928;-77
2024/03/02 12:18:35;;;;;;;;;;;;;;;;;;5100358;28;19928;-78
2024/03/02 12:21:03;;;;;;;;;;;;;;;;;;5088952;28;20408;-78
2024/03/02 12:23:30;;;;;;;;;;;;;;;;;;5106759;28;19976;-76
2024/03/02 12:25:56;;;;;;;;;;;;;;;;;;5103841;28;19954;-78
2024/03/02 12:28:22;;;;;;;;;;;;;;;;;;5104969;28;19928;-80
2024/03/02 12:30:49;;;;;;;;;;;;;;;;;;5101901;28;19967;-79
2024/03/02 12:33:15;;;;;;;;;;;;;;;;;;5104070;28;20288;-77
2024/03/02 12:35:42;;;;;;;;;;;;;;;;;;5105961;28;20457;-80
2024/03/02 12:38:09;;;;;;;;;;;;;;;;;;5102922;28;19931;-77
2024/03/02 12:40:37;;;;;;;;;;;;;;;;;;5109267;27;19942;-76
2024/03/02 12:43:03;;;;;;;;;;;;;;;;;;5085499;28;19936;-78
2024/03/02 12:45:30;;;;;;;;;;;;;;;;;;5091825;28;19928;-76
2024/03/02 12:47:56;;;;;;;;;;;;;;;;;;5088237;28;20364;-77
2024/03/02 12:50:22;;;;;;;;;;;;;;;;;;5093296;28;19985;-79
2024/03/02 12:52:49;;;;;;;;;;;;;;;;;;5070542;28;20369;-77
2024/03/02 12:55:15;;;;;;;;;;;;;;;;;;5062874;28;20672;-79
2024/03/02 12:57:41;;;;;;;;;;;;;;;;;;5092078;28;19930;-79
2024/03/02 13:00:10;;;;;;;;;;;;;;;;;;5073378;28;20296;-77
2024/03/02 13:02:36;;;;;;;;;;;;;;;;;;5093931;28;19924;-80
2024/03/02 13:05:02;;;;;;;;;;;;;;;;;;5082189;28;20014;-78
2024/03/02 13:07:29;;;;;;;;;;;;;;;;;;5090225;28;19939;-78
2024/03/02 13:09:55;;;;;;;;;;;;;;;;;;5086955;28;20304;-79
2024/03/02 13:12:21;;;;;;;;;;;;;;;;;;5093172;28;19977;-79
2024/03/02 13:14:48;;;;;;;;;;;;;;;;;;5091136;28;19928;-77
2024/03/02 13:17:14;;;;;;;;;;;;;;;;;;5086752;28;19924;-80
2024/03/02 13:19:40;;;;;;;;;;;;;;;;;;5085084;28;20078;-80
2024/03/02 13:22:07;;;;;;;;;;;;;;;;;;5092745;28;19931;-78
2024/03/02 13:24:34;;;;;;;;;;;;;;;;;;5092360;28;20354;-79
2024/03/02 13:27:00;;;;;;;;;;;;;;;;;;5092292;28;19934;-79
2024/03/02 13:29:27;;;;;;;;;;;;;;;;;;5092242;28;20015;-79
2024/03/02 13:31:54;;;;;;;;;;;;;;;;;;5091948;28;20394;-80
2024/03/02 13:34:20;;;;;;;;;;;;;;;;;;5092582;28;19924;-80
2024/03/02 13:36:47;;;;;;;;;;;;;;;;;;5089922;28;19959;-78
2024/03/02 13:39:15;;;;;;;;;;;;;;;;;;5093538;28;19930;-78
2024/03/02 13:41:41;;;;;;;;;;;;;;;;;;5092844;28;20349;-79
2024/03/02 13:44:08;;;;;;;;;;;;;;;;;;5091480;28;19931;-78
2024/03/02 13:46:34;;;;;;;;;;;;;;;;;;5092888;28;19938;-81
2024/03/02 13:49:01;;;;;;;;;;;;;;;;;;5089232;28;19931;-75
2024/03/02 13:51:28;;;;;;;;;;;;;;;;;;5091175;28;20335;-78
2024/03/02 13:53:54;;;;;;;;;;;;;;;;;;5092225;28;20009;-78
2024/03/02 13:56:20;;;;;;;;;;;;;;;;;;5091207;28;19924;-79
2024/03/02 13:58:47;;;;;;;;;;;;;;;;;;5091682;28;19924;-78
2024/03/02 14:01:13;;;;;;;;;;;;;;;;;;5091369;28;20378;-80
2024/03/02 14:03:40;;;;;;;;;;;;;;;;;;5089863;28;20361;-81
2024/03/02 14:06:06;;;;;;;;;;;;;;;;;;5093604;28;20354;-79
2024/03/02 14:08:35;;;;;;;;;;;;;;;;;;5090504;28;20399;-80
2024/03/02 14:11:02;;;;;;;;;;;;;;;;;;5093019;28;19930;-80
2024/03/02 14:13:29;;;;;;;;;;;;;;;;;;5092835;28;19935;-79
2024/03/02 14:15:56;;;;;;;;;;;;;;;;;;5091006;28;19928;-78
2024/03/02 14:18:22;;;;;;;;;;;;;;;;;;5092450;28;19924;-79
2024/03/02 14:20:52;;;;;;;;;;;;;;;;;;5092113;28;19928;-80
2024/03/02 14:23:19;;;;;;;;;;;;;;;;;;5091957;28;19928;-81
2024/03/02 14:25:45;;;;;;;;;;;;;;;;;;5092612;28;19931;-81
2024/03/02 14:28:12;;;;;;;;;;;;;;;;;;5074493;28;19924;-79
2024/03/02 14:30:41;;;;;;;;;;;;;;;;;;5092389;28;19930;-80
2024/03/02 14:33:08;;;;;;;;;;;;;;;;;;5091367;28;19924;-81
2024/03/02 14:35:34;;;;;;;;;;;;;;;;;;5094472;28;19963;-79
2024/03/02 14:38:00;;;;;;;;;;;;;;;;;;5094634;28;20023;-80
2024/03/02 14:40:29;;;;;;;;;;;;;;;;;;5092705;28;19931;-79
2024/03/02 14:42:55;;;;;;;;;;;;;;;;;;5073008;28;19969;-79
2024/03/02 14:45:21;;;;;;;;;;;;;;;;;;5094381;28;20011;-80
2024/03/02 14:47:48;;;;;;;;;;;;;;;;;;5095648;28;19923;-81
2024/03/02 14:50:16;;;;;;;;;;;;;;;;;;5095270;28;19924;-80
2024/03/02 14:52:42;;;;;;;;;;;;;;;;;;5095734;28;19934;-80
2024/03/02 14:55:11;;;;;;;;;;;;;;;;;;5102431;28;19924;-80
2024/03/02 14:57:37;;;;;;;;;;;;;;;;;;5094802;28;19924;-79
2024/03/02 15:00:07;;;;;;;;;;;;;;;;;;5084229;28;19955;-79
2024/03/02 15:02:33;;;;;;;;;;;;;;;;;;5090200;28;19932;-80
2024/03/02 15:05:00;;;;;;;;;;;;;;;;;;5092923;28;19928;-80
2024/03/02 15:07:26;;;;;;;;;;;;;;;;;;5094583;28;20039;-80
2024/03/02 15:09:54;;;;;;;;;;;;;;;;;;5092186;28;19931;-82
2024/03/02 15:12:20;;;;;;;;;;;;;;;;;;5095860;28;19971;-82
2024/03/02 15:14:47;;;;;;;;;;;;;;;;;;5094486;28;19932;-80
2024/03/02 15:17:15;;;;;;;;;;;;;;;;;;5095821;28;19970;-80
2024/03/02 15:19:42;;;;;;;;;;;;;;;;;;5093172;28;19928;-80
2024/03/02 15:22:09;;;;;;;;;;;;;;;;;;5095382;28;19924;-81
2024/03/02 15:24:35;;;;;;;;;;;;;;;;;;5095523;28;19928;-79
2024/03/02 15:27:07;;;;;;;;;;;;;;;;;;5091876;28;20308;-77
2024/03/02 15:29:33;;;;;;;;;;;;;;;;;;5095038;28;19924;-80
2024/03/02 15:31:59;;;;;;;;;;;;;;;;;;5094140;28;19924;-80
2024/03/02 15:34:26;;;;;;;;;;;;;;;;;;5077697;28;19977;-79
2024/03/02 15:36:53;;;;;;;;;;;;;;;;;;5090113;28;20118;-79
2024/03/02 15:39:19;;;;;;;;;;;;;;;;;;5093780;28;19931;-77
2024/03/02 15:41:46;;;;;;;;;;;;;;;;;;5095018;28;20395;-80
2024/03/02 15:44:12;;;;;;;;;;;;;;;;;;5094796;28;19925;-78
2024/03/02 15:46:38;;;;;;;;;;;;;;;;;;5094235;28;20019;-79
2024/03/02 15:49:06;;;;;;;;;;;;;;;;;;5093423;28;19924;-78
2024/03/02 15:51:40;;;;;;;;;;;;;;;;;;5089432;28;19980;-80
2024/03/02 15:54:06;;;;;;;;;;;;;;;;;;5090814;28;19979;-80
2024/03/02 15:56:32;;;;;;;;;;;;;;;;;;5094750;28;19943;-80
2024/03/02 15:58:59;;;;;;;;;;;;;;;;;;5092837;28;20031;-80
2024/03/02 16:01:25;;;;;;;;;;;;;;;;;;5093753;28;19924;-80
2024/03/02 16:03:55;;;;;;;;;;;;;;;;;;5094896;28;20042;-81
2024/03/02 16:06:22;;;;;;;;;;;;;;;;;;5091857;28;19963;-80
2024/03/02 16:08:48;;;;;;;;;;;;;;;;;;5093781;28;19981;-79
2024/03/02 16:11:14;;;;;;;;;;;;;;;;;;5093084;28;20301;-80
2024/03/02 16:13:41;;;;;;;;;;;;;;;;;;5092954;28;19963;-81
2024/03/02 16:16:07;;;;;;;;;;;;;;;;;;5093930;28;19928;-77
2024/03/02 16:18:34;;;;;;;;;;;;;;;;;;5076228;28;20019;-78
2024/03/02 16:21:00;;;;;;;;;;;;;;;;;;5093124;28;20486;-79
2024/03/02 16:23:27;;;;;;;;;;;;;;;;;;5094106;28;19968;-77
2024/03/02 16:25:53;;;;;;;;;;;;;;;;;;5091497;28;19928;-79
2024/03/02 16:28:21;;;;;;;;;;;;;;;;;;5092597;28;20305;-79
2024/03/02 16:30:47;;;;;;;;;;;;;;;;;;5075719;28;19935;-79
2024/03/02 16:33:14;;;;;;;;;;;;;;;;;;5092426;28;19975;-79
2024/03/02 16:35:40;;;;;;;;;;;;;;;;;;5093800;28;19924;-79
2024/03/02 16:38:06;;;;;;;;;;;;;;;;;;5092051;28;19924;-80
2024/03/02 16:40:33;;;;;;;;;;;;;;;;;;5088782;28;19924;-82
2024/03/02 16:42:59;;;;;;;;;;;;;;;;;;5094117;28;19928;-80
2024/03/02 16:45:26;;;;;;;;;;;;;;;;;;5094572;28;19964;-80
2024/03/02 16:47:52;;;;;;;;;;;;;;;;;;5092406;28;19977;-79